sensor_id;sensor_type;location;lat;lon;timestamp;P1;durP1;ratioP1;P2;durP2;ratioP2
20870;SDS011;10595;51.218;3.452;2023-04-12T00:00:30;7.70;;;3.53;;
20870;SDS011;10595;51.218;3.452;2023-04-12T00:02:56;9.43;;;3.93;;
20870;SDS011;10595;51.218;3.452;2023-04-12T00:05:23;6.93;;;3.77;;
20870;SDS011;10595;51.218;3.452;2023-04-12T00:07:51;5.67;;;3.83;;
20870;SDS011;10595;51.218;3.452;2023-04-12T00:10:18;9.10;;;3.90;;
20870;SDS011;10595;51.218;3.452;2023-04-12T00:12:45;11.17;;;3.60;;
20870;SDS011;10595;51.218;3.452;2023-04-12T00:15:11;4.53;;;3.17;;
20870;SDS011;10595;51.218;3.452;2023-04-12T00:17:37;8.47;;;3.33;;
20870;SDS011;10595;51.218;3.452;2023-04-12T00:20:05;5.67;;;3.17;;
20870;SDS011;10595;51.218;3.452;2023-04-12T00:22:36;7.07;;;3.30;;
20870;SDS011;10595;51.218;3.452;2023-04-12T00:25:02;8.87;;;3.53;;
20870;SDS011;10595;51.218;3.452;2023-04-12T00:27:28;8.10;;;3.60;;
20870;SDS011;10595;51.218;3.452;2023-04-12T00:29:54;6.90;;;3.43;;
20870;SDS011;10595;51.218;3.452;2023-04-12T00:32:21;7.73;;;3.20;;
20870;SDS011;10595;51.218;3.452;2023-04-12T00:34:47;10.30;;;2.87;;
20870;SDS011;10595;51.218;3.452;2023-04-12T00:37:13;6.80;;;3.20;;
20870;SDS011;10595;51.218;3.452;2023-04-12T00:39:39;5.60;;;2.80;;
20870;SDS011;10595;51.218;3.452;2023-04-12T00:42:05;5.13;;;2.87;;
20870;SDS011;10595;51.218;3.452;2023-04-12T00:44:31;9.77;;;3.03;;
20870;SDS011;10595;51.218;3.452;2023-04-12T00:47:02;7.17;;;2.87;;
20870;SDS011;10595;51.218;3.452;2023-04-12T00:49:29;7.27;;;2.73;;
20870;SDS011;10595;51.218;3.452;2023-04-12T00:51:57;6.30;;;3.10;;
20870;SDS011;10595;51.218;3.452;2023-04-12T00:54:24;6.00;;;2.70;;
20870;SDS011;10595;51.218;3.452;2023-04-12T00:56:50;7.17;;;3.27;;
20870;SDS011;10595;51.218;3.452;2023-04-12T00:59:16;6.60;;;2.77;;
20870;SDS011;10595;51.218;3.452;2023-04-12T01:01:42;8.73;;;3.00;;
20870;SDS011;10595;51.218;3.452;2023-04-12T01:04:09;10.90;;;3.10;;
20870;SDS011;10595;51.218;3.452;2023-04-12T01:06:45;6.47;;;3.20;;
20870;SDS011;10595;51.218;3.452;2023-04-12T01:09:35;5.93;;;2.70;;
20870;SDS011;10595;51.218;3.452;2023-04-12T01:15:19;7.47;;;3.57;;
20870;SDS011;10595;51.218;3.452;2023-04-12T01:17:27;5.10;;;2.97;;
20870;SDS011;10595;51.218;3.452;2023-04-12T01:20:04;6.00;;;3.57;;
20870;SDS011;10595;51.218;3.452;2023-04-12T01:27:38;7.03;;;4.03;;
20870;SDS011;10595;51.218;3.452;2023-04-12T01:30:06;7.63;;;3.97;;
20870;SDS011;10595;51.218;3.452;2023-04-12T01:32:33;4.60;;;3.20;;
20870;SDS011;10595;51.218;3.452;2023-04-12T01:35:00;6.30;;;3.20;;
20870;SDS011;10595;51.218;3.452;2023-04-12T01:37:27;6.80;;;3.43;;
20870;SDS011;10595;51.218;3.452;2023-04-12T01:39:53;6.93;;;3.27;;
20870;SDS011;10595;51.218;3.452;2023-04-12T01:42:19;6.77;;;3.30;;
20870;SDS011;10595;51.218;3.452;2023-04-12T01:44:45;5.00;;;3.57;;
20870;SDS011;10595;51.218;3.452;2023-04-12T01:47:11;6.93;;;3.87;;
20870;SDS011;10595;51.218;3.452;2023-04-12T01:49:48;9.10;;;3.63;;
20870;SDS011;10595;51.218;3.452;2023-04-12T01:52:20;5.23;;;3.77;;
20870;SDS011;10595;51.218;3.452;2023-04-12T01:54:48;5.77;;;3.73;;
20870;SDS011;10595;51.218;3.452;2023-04-12T01:57:15;8.73;;;3.80;;
20870;SDS011;10595;51.218;3.452;2023-04-12T01:59:43;7.10;;;3.93;;
20870;SDS011;10595;51.218;3.452;2023-04-12T02:02:10;7.87;;;3.57;;
20870;SDS011;10595;51.218;3.452;2023-04-12T02:04:37;8.70;;;3.80;;
20870;SDS011;10595;51.218;3.452;2023-04-12T02:07:03;4.83;;;3.40;;
20870;SDS011;10595;51.218;3.452;2023-04-12T02:09:29;8.87;;;3.57;;
20870;SDS011;10595;51.218;3.452;2023-04-12T02:12:00;5.13;;;3.50;;
20870;SDS011;10595;51.218;3.452;2023-04-12T02:14:26;7.43;;;3.20;;
20870;SDS011;10595;51.218;3.452;2023-04-12T02:16:52;4.73;;;2.67;;
20870;SDS011;10595;51.218;3.452;2023-04-12T02:19:18;6.20;;;3.13;;
20870;SDS011;10595;51.218;3.452;2023-04-12T02:21:45;4.87;;;2.73;;
20870;SDS011;10595;51.218;3.452;2023-04-12T02:24:11;5.40;;;3.00;;
20870;SDS011;10595;51.218;3.452;2023-04-12T02:26:37;5.50;;;2.90;;
20870;SDS011;10595;51.218;3.452;2023-04-12T02:29:04;6.13;;;2.83;;
20870;SDS011;10595;51.218;3.452;2023-04-12T02:31:33;4.60;;;3.10;;
20870;SDS011;10595;51.218;3.452;2023-04-12T02:34:03;5.17;;;2.80;;
20870;SDS011;10595;51.218;3.452;2023-04-12T02:36:29;7.30;;;3.33;;
20870;SDS011;10595;51.218;3.452;2023-04-12T02:38:55;6.77;;;3.60;;
20870;SDS011;10595;51.218;3.452;2023-04-12T02:41:22;5.73;;;4.03;;
20870;SDS011;10595;51.218;3.452;2023-04-12T02:43:49;6.50;;;4.23;;
20870;SDS011;10595;51.218;3.452;2023-04-12T02:46:17;7.10;;;4.13;;
20870;SDS011;10595;51.218;3.452;2023-04-12T02:48:44;6.00;;;3.90;;
20870;SDS011;10595;51.218;3.452;2023-04-12T02:51:10;7.30;;;4.67;;
20870;SDS011;10595;51.218;3.452;2023-04-12T02:53:36;7.60;;;3.93;;
20870;SDS011;10595;51.218;3.452;2023-04-12T02:56:03;6.00;;;3.60;;
20870;SDS011;10595;51.218;3.452;2023-04-12T02:58:29;4.67;;;3.17;;
20870;SDS011;10595;51.218;3.452;2023-04-12T03:00:55;4.80;;;3.47;;
20870;SDS011;10595;51.218;3.452;2023-04-12T03:03:24;5.33;;;3.90;;
20870;SDS011;10595;51.218;3.452;2023-04-12T03:05:50;6.57;;;4.00;;
20870;SDS011;10595;51.218;3.452;2023-04-12T03:08:16;6.90;;;4.50;;
20870;SDS011;10595;51.218;3.452;2023-04-12T03:10:42;4.57;;;4.03;;
20870;SDS011;10595;51.218;3.452;2023-04-12T03:13:08;7.23;;;4.20;;
20870;SDS011;10595;51.218;3.452;2023-04-12T03:15:35;6.67;;;4.33;;
20870;SDS011;10595;51.218;3.452;2023-04-12T03:18:01;7.17;;;5.07;;
20870;SDS011;10595;51.218;3.452;2023-04-12T03:20:27;8.90;;;5.43;;
20870;SDS011;10595;51.218;3.452;2023-04-12T03:22:53;6.33;;;4.63;;
20870;SDS011;10595;51.218;3.452;2023-04-12T03:25:19;6.90;;;5.53;;
20870;SDS011;10595;51.218;3.452;2023-04-12T03:27:45;7.93;;;5.60;;
20870;SDS011;10595;51.218;3.452;2023-04-12T03:30:11;9.10;;;5.97;;
20870;SDS011;10595;51.218;3.452;2023-04-12T03:32:38;7.93;;;5.57;;
20870;SDS011;10595;51.218;3.452;2023-04-12T03:35:05;8.07;;;5.57;;
20870;SDS011;10595;51.218;3.452;2023-04-12T03:37:32;7.80;;;5.07;;
20870;SDS011;10595;51.218;3.452;2023-04-12T03:39:58;7.77;;;5.40;;
20870;SDS011;10595;51.218;3.452;2023-04-12T03:42:24;6.60;;;4.60;;
20870;SDS011;10595;51.218;3.452;2023-04-12T03:44:51;6.23;;;4.43;;
20870;SDS011;10595;51.218;3.452;2023-04-12T03:47:17;8.47;;;4.40;;
20870;SDS011;10595;51.218;3.452;2023-04-12T03:49:43;8.30;;;4.27;;
20870;SDS011;10595;51.218;3.452;2023-04-12T03:52:09;6.53;;;4.30;;
20870;SDS011;10595;51.218;3.452;2023-04-12T03:54:35;7.13;;;4.00;;
20870;SDS011;10595;51.218;3.452;2023-04-12T03:57:01;7.70;;;3.70;;
20870;SDS011;10595;51.218;3.452;2023-04-12T03:59:28;4.90;;;4.00;;
20870;SDS011;10595;51.218;3.452;2023-04-12T04:01:55;8.63;;;4.30;;
20870;SDS011;10595;51.218;3.452;2023-04-12T04:04:21;7.07;;;3.67;;
20870;SDS011;10595;51.218;3.452;2023-04-12T04:06:48;6.97;;;3.87;;
20870;SDS011;10595;51.218;3.452;2023-04-12T04:09:14;10.00;;;3.87;;
20870;SDS011;10595;51.218;3.452;2023-04-12T04:11:40;8.47;;;3.60;;
20870;SDS011;10595;51.218;3.452;2023-04-12T04:14:06;6.80;;;2.77;;
20870;SDS011;10595;51.218;3.452;2023-04-12T04:16:33;9.63;;;3.10;;
20870;SDS011;10595;51.218;3.452;2023-04-12T04:18:59;12.00;;;2.90;;
20870;SDS011;10595;51.218;3.452;2023-04-12T04:21:25;14.17;;;2.77;;
20870;SDS011;10595;51.218;3.452;2023-04-12T04:23:54;9.17;;;2.60;;
20870;SDS011;10595;51.218;3.452;2023-04-12T04:26:22;13.67;;;2.90;;
20870;SDS011;10595;51.218;3.452;2023-04-12T04:29:00;8.07;;;2.80;;
20870;SDS011;10595;51.218;3.452;2023-04-12T04:31:27;13.20;;;2.47;;
20870;SDS011;10595;51.218;3.452;2023-04-12T04:34:02;10.37;;;2.60;;
20870;SDS011;10595;51.218;3.452;2023-04-12T04:36:31;14.13;;;3.50;;
20870;SDS011;10595;51.218;3.452;2023-04-12T04:38:57;13.00;;;2.70;;
20870;SDS011;10595;51.218;3.452;2023-04-12T04:41:23;17.40;;;2.63;;
20870;SDS011;10595;51.218;3.452;2023-04-12T04:43:49;16.63;;;2.87;;
20870;SDS011;10595;51.218;3.452;2023-04-12T04:46:15;11.57;;;2.67;;
20870;SDS011;10595;51.218;3.452;2023-04-12T04:48:45;12.67;;;3.10;;
20870;SDS011;10595;51.218;3.452;2023-04-12T04:51:11;13.07;;;3.10;;
20870;SDS011;10595;51.218;3.452;2023-04-12T04:53:38;15.53;;;2.40;;
20870;SDS011;10595;51.218;3.452;2023-04-12T04:56:05;13.03;;;2.80;;
20870;SDS011;10595;51.218;3.452;2023-04-12T04:58:31;21.77;;;2.87;;
20870;SDS011;10595;51.218;3.452;2023-04-12T05:00:57;9.87;;;2.80;;
20870;SDS011;10595;51.218;3.452;2023-04-12T05:03:23;11.53;;;3.13;;
20870;SDS011;10595;51.218;3.452;2023-04-12T05:05:53;11.33;;;2.87;;
20870;SDS011;10595;51.218;3.452;2023-04-12T05:08:20;13.47;;;3.00;;
20870;SDS011;10595;51.218;3.452;2023-04-12T05:10:49;9.07;;;2.40;;
20870;SDS011;10595;51.218;3.452;2023-04-12T05:13:15;14.33;;;2.63;;
20870;SDS011;10595;51.218;3.452;2023-04-12T05:15:41;17.37;;;2.83;;
20870;SDS011;10595;51.218;3.452;2023-04-12T05:18:07;12.47;;;2.60;;
20870;SDS011;10595;51.218;3.452;2023-04-12T05:20:33;14.47;;;2.70;;
20870;SDS011;10595;51.218;3.452;2023-04-12T05:22:59;14.17;;;2.40;;
20870;SDS011;10595;51.218;3.452;2023-04-12T05:25:25;11.53;;;2.70;;
20870;SDS011;10595;51.218;3.452;2023-04-12T05:27:51;13.03;;;2.40;;
20870;SDS011;10595;51.218;3.452;2023-04-12T05:30:17;16.63;;;2.67;;
20870;SDS011;10595;51.218;3.452;2023-04-12T05:32:43;10.63;;;2.50;;
20870;SDS011;10595;51.218;3.452;2023-04-12T05:35:09;10.73;;;2.90;;
20870;SDS011;10595;51.218;3.452;2023-04-12T05:37:35;17.03;;;2.63;;
20870;SDS011;10595;51.218;3.452;2023-04-12T05:40:01;14.00;;;2.80;;
20870;SDS011;10595;51.218;3.452;2023-04-12T05:42:30;13.87;;;2.43;;
20870;SDS011;10595;51.218;3.452;2023-04-12T05:44:56;13.53;;;2.90;;
20870;SDS011;10595;51.218;3.452;2023-04-12T05:47:22;17.70;;;2.97;;
20870;SDS011;10595;51.218;3.452;2023-04-12T05:49:48;13.33;;;2.77;;
20870;SDS011;10595;51.218;3.452;2023-04-12T05:52:14;13.77;;;2.80;;
20870;SDS011;10595;51.218;3.452;2023-04-12T05:54:40;18.00;;;2.77;;
20870;SDS011;10595;51.218;3.452;2023-04-12T05:57:06;12.63;;;2.40;;
20870;SDS011;10595;51.218;3.452;2023-04-12T05:59:32;18.27;;;2.93;;
20870;SDS011;10595;51.218;3.452;2023-04-12T06:01:59;18.23;;;2.97;;
20870;SDS011;10595;51.218;3.452;2023-04-12T06:04:25;15.33;;;2.93;;
20870;SDS011;10595;51.218;3.452;2023-04-12T06:06:51;15.50;;;3.10;;
20870;SDS011;10595;51.218;3.452;2023-04-12T06:09:17;17.10;;;3.50;;
20870;SDS011;10595;51.218;3.452;2023-04-12T06:11:43;17.90;;;3.73;;
20870;SDS011;10595;51.218;3.452;2023-04-12T06:14:09;15.57;;;3.20;;
20870;SDS011;10595;51.218;3.452;2023-04-12T06:16:35;18.77;;;3.10;;
20870;SDS011;10595;51.218;3.452;2023-04-12T06:19:01;12.00;;;3.00;;
20870;SDS011;10595;51.218;3.452;2023-04-12T06:21:27;15.00;;;3.10;;
20870;SDS011;10595;51.218;3.452;2023-04-12T06:23:53;16.57;;;3.10;;
20870;SDS011;10595;51.218;3.452;2023-04-12T06:26:19;15.37;;;3.80;;
20870;SDS011;10595;51.218;3.452;2023-04-12T06:28:45;14.87;;;3.90;;
20870;SDS011;10595;51.218;3.452;2023-04-12T06:31:11;16.93;;;3.03;;
20870;SDS011;10595;51.218;3.452;2023-04-12T06:33:37;13.37;;;3.87;;
20870;SDS011;10595;51.218;3.452;2023-04-12T06:36:04;21.33;;;2.90;;
20870;SDS011;10595;51.218;3.452;2023-04-12T06:38:30;19.30;;;3.33;;
20870;SDS011;10595;51.218;3.452;2023-04-12T06:40:56;22.93;;;3.40;;
20870;SDS011;10595;51.218;3.452;2023-04-12T06:43:22;13.40;;;3.13;;
20870;SDS011;10595;51.218;3.452;2023-04-12T06:45:48;16.23;;;3.37;;
20870;SDS011;10595;51.218;3.452;2023-04-12T06:48:14;14.00;;;3.23;;
20870;SDS011;10595;51.218;3.452;2023-04-12T06:50:40;12.07;;;3.47;;
20870;SDS011;10595;51.218;3.452;2023-04-12T06:53:06;17.03;;;3.57;;
20870;SDS011;10595;51.218;3.452;2023-04-12T06:55:32;14.03;;;2.97;;
20870;SDS011;10595;51.218;3.452;2023-04-12T06:57:58;13.60;;;2.77;;
20870;SDS011;10595;51.218;3.452;2023-04-12T07:00:24;12.27;;;2.50;;
20870;SDS011;10595;51.218;3.452;2023-04-12T07:02:51;14.70;;;2.93;;
20870;SDS011;10595;51.218;3.452;2023-04-12T07:05:17;19.33;;;3.63;;
20870;SDS011;10595;51.218;3.452;2023-04-12T07:07:43;22.20;;;3.20;;
20870;SDS011;10595;51.218;3.452;2023-04-12T07:10:09;20.57;;;3.23;;
20870;SDS011;10595;51.218;3.452;2023-04-12T07:12:35;12.50;;;2.63;;
20870;SDS011;10595;51.218;3.452;2023-04-12T07:15:01;16.33;;;3.20;;
20870;SDS011;10595;51.218;3.452;2023-04-12T07:17:28;15.87;;;2.90;;
20870;SDS011;10595;51.218;3.452;2023-04-12T07:19:54;16.93;;;3.10;;
20870;SDS011;10595;51.218;3.452;2023-04-12T07:22:20;17.40;;;3.60;;
20870;SDS011;10595;51.218;3.452;2023-04-12T07:24:47;21.07;;;3.23;;
20870;SDS011;10595;51.218;3.452;2023-04-12T07:27:13;16.90;;;3.07;;
20870;SDS011;10595;51.218;3.452;2023-04-12T07:29:39;20.13;;;4.00;;
20870;SDS011;10595;51.218;3.452;2023-04-12T07:32:06;16.60;;;3.40;;
20870;SDS011;10595;51.218;3.452;2023-04-12T07:34:32;14.73;;;3.37;;
20870;SDS011;10595;51.218;3.452;2023-04-12T07:36:58;13.90;;;3.27;;
20870;SDS011;10595;51.218;3.452;2023-04-12T07:39:25;19.63;;;3.97;;
20870;SDS011;10595;51.218;3.452;2023-04-12T07:41:51;20.47;;;3.60;;
20870;SDS011;10595;51.218;3.452;2023-04-12T07:44:17;17.17;;;3.57;;
20870;SDS011;10595;51.218;3.452;2023-04-12T07:46:43;15.50;;;3.17;;
20870;SDS011;10595;51.218;3.452;2023-04-12T07:49:10;17.87;;;2.83;;
20870;SDS011;10595;51.218;3.452;2023-04-12T07:51:36;18.93;;;3.33;;
20870;SDS011;10595;51.218;3.452;2023-04-12T07:54:02;16.00;;;3.13;;
20870;SDS011;10595;51.218;3.452;2023-04-12T07:56:28;16.20;;;3.10;;
20870;SDS011;10595;51.218;3.452;2023-04-12T07:58:54;15.00;;;3.00;;
20870;SDS011;10595;51.218;3.452;2023-04-12T08:01:20;14.10;;;2.73;;
20870;SDS011;10595;51.218;3.452;2023-04-12T08:03:46;14.73;;;2.90;;
20870;SDS011;10595;51.218;3.452;2023-04-12T08:06:12;12.27;;;2.77;;
20870;SDS011;10595;51.218;3.452;2023-04-12T08:08:38;12.60;;;2.60;;
20870;SDS011;10595;51.218;3.452;2023-04-12T08:11:04;14.50;;;2.73;;
20870;SDS011;10595;51.218;3.452;2023-04-12T08:13:31;14.33;;;2.70;;
20870;SDS011;10595;51.218;3.452;2023-04-12T08:15:57;18.53;;;2.80;;
20870;SDS011;10595;51.218;3.452;2023-04-12T08:18:23;15.40;;;3.17;;
20870;SDS011;10595;51.218;3.452;2023-04-12T08:20:49;13.77;;;2.63;;
20870;SDS011;10595;51.218;3.452;2023-04-12T08:23:16;11.67;;;3.37;;
20870;SDS011;10595;51.218;3.452;2023-04-12T08:25:42;17.40;;;3.80;;
20870;SDS011;10595;51.218;3.452;2023-04-12T08:28:08;10.57;;;2.57;;
20870;SDS011;10595;51.218;3.452;2023-04-12T08:30:34;14.37;;;3.23;;
20870;SDS011;10595;51.218;3.452;2023-04-12T08:33:00;14.73;;;3.07;;
20870;SDS011;10595;51.218;3.452;2023-04-12T08:35:27;13.47;;;3.60;;
20870;SDS011;10595;51.218;3.452;2023-04-12T08:37:53;18.47;;;3.57;;
20870;SDS011;10595;51.218;3.452;2023-04-12T08:40:19;19.13;;;3.40;;
20870;SDS011;10595;51.218;3.452;2023-04-12T08:42:46;11.20;;;2.93;;
20870;SDS011;10595;51.218;3.452;2023-04-12T08:45:12;15.27;;;3.20;;
20870;SDS011;10595;51.218;3.452;2023-04-12T08:47:42;13.50;;;2.93;;
20870;SDS011;10595;51.218;3.452;2023-04-12T08:50:09;17.73;;;3.30;;
20870;SDS011;10595;51.218;3.452;2023-04-12T08:52:37;15.53;;;3.63;;
20870;SDS011;10595;51.218;3.452;2023-04-12T08:55:04;13.33;;;3.63;;
20870;SDS011;10595;51.218;3.452;2023-04-12T08:57:31;15.97;;;3.83;;
20870;SDS011;10595;51.218;3.452;2023-04-12T08:59:58;14.67;;;3.37;;
20870;SDS011;10595;51.218;3.452;2023-04-12T09:02:25;15.37;;;4.00;;
20870;SDS011;10595;51.218;3.452;2023-04-12T09:04:51;20.03;;;3.73;;
20870;SDS011;10595;51.218;3.452;2023-04-12T09:07:17;30.20;;;4.57;;
20870;SDS011;10595;51.218;3.452;2023-04-12T09:09:44;14.40;;;3.90;;
20870;SDS011;10595;51.218;3.452;2023-04-12T09:12:10;19.63;;;4.67;;
20870;SDS011;10595;51.218;3.452;2023-04-12T09:14:37;16.73;;;4.30;;
20870;SDS011;10595;51.218;3.452;2023-04-12T09:17:04;20.63;;;4.70;;
20870;SDS011;10595;51.218;3.452;2023-04-12T09:19:31;17.50;;;4.60;;
20870;SDS011;10595;51.218;3.452;2023-04-12T09:21:57;13.17;;;3.83;;
20870;SDS011;10595;51.218;3.452;2023-04-12T09:24:23;21.60;;;4.33;;
20870;SDS011;10595;51.218;3.452;2023-04-12T09:27:05;15.97;;;4.13;;
20870;SDS011;10595;51.218;3.452;2023-04-12T09:29:33;21.13;;;4.40;;
20870;SDS011;10595;51.218;3.452;2023-04-12T09:32:02;26.63;;;4.17;;
20870;SDS011;10595;51.218;3.452;2023-04-12T09:34:29;25.47;;;3.67;;
20870;SDS011;10595;51.218;3.452;2023-04-12T09:36:56;17.30;;;3.30;;
20870;SDS011;10595;51.218;3.452;2023-04-12T09:39:34;19.57;;;3.40;;
20870;SDS011;10595;51.218;3.452;2023-04-12T09:42:03;21.10;;;3.60;;
20870;SDS011;10595;51.218;3.452;2023-04-12T09:44:30;17.13;;;3.40;;
20870;SDS011;10595;51.218;3.452;2023-04-12T09:46:56;16.40;;;3.60;;
20870;SDS011;10595;51.218;3.452;2023-04-12T09:49:34;22.23;;;4.03;;
20870;SDS011;10595;51.218;3.452;2023-04-12T09:52:02;18.47;;;4.10;;
20870;SDS011;10595;51.218;3.452;2023-04-12T09:54:28;13.23;;;3.07;;
20870;SDS011;10595;51.218;3.452;2023-04-12T09:56:55;13.83;;;3.50;;
20870;SDS011;10595;51.218;3.452;2023-04-12T09:59:21;15.77;;;2.70;;
20870;SDS011;10595;51.218;3.452;2023-04-12T10:01:52;15.87;;;3.07;;
20870;SDS011;10595;51.218;3.452;2023-04-12T10:04:19;16.07;;;3.13;;
20870;SDS011;10595;51.218;3.452;2023-04-12T10:06:45;15.27;;;3.00;;
20870;SDS011;10595;51.218;3.452;2023-04-12T10:09:11;17.87;;;3.10;;
20870;SDS011;10595;51.218;3.452;2023-04-12T10:11:38;8.03;;;2.23;;
20870;SDS011;10595;51.218;3.452;2023-04-12T10:14:05;15.57;;;3.10;;
20870;SDS011;10595;51.218;3.452;2023-04-12T10:16:34;11.03;;;1.90;;
20870;SDS011;10595;51.218;3.452;2023-04-12T10:19:02;10.50;;;1.90;;
20870;SDS011;10595;51.218;3.452;2023-04-12T10:21:28;16.73;;;2.50;;
20870;SDS011;10595;51.218;3.452;2023-04-12T10:23:55;14.23;;;2.87;;
20870;SDS011;10595;51.218;3.452;2023-04-12T10:26:21;12.03;;;1.87;;
20870;SDS011;10595;51.218;3.452;2023-04-12T10:29:20;9.33;;;1.57;;
20870;SDS011;10595;51.218;3.452;2023-04-12T10:31:33;5.53;;;1.20;;
20870;SDS011;10595;51.218;3.452;2023-04-12T10:34:02;5.83;;;1.30;;
20870;SDS011;10595;51.218;3.452;2023-04-12T10:42:14;8.37;;;1.77;;
20870;SDS011;10595;51.218;3.452;2023-04-12T10:44:40;6.97;;;1.27;;
20870;SDS011;10595;51.218;3.452;2023-04-12T10:47:06;4.57;;;1.33;;
20870;SDS011;10595;51.218;3.452;2023-04-12T10:49:33;5.60;;;1.20;;
20870;SDS011;10595;51.218;3.452;2023-04-12T10:54:30;3.80;;;1.23;;
20870;SDS011;10595;51.218;3.452;2023-04-12T10:56:56;5.73;;;1.20;;
20870;SDS011;10595;51.218;3.452;2023-04-12T10:59:22;5.23;;;0.90;;
20870;SDS011;10595;51.218;3.452;2023-04-12T11:02:06;6.43;;;1.37;;
20870;SDS011;10595;51.218;3.452;2023-04-12T11:04:33;7.27;;;1.50;;
20870;SDS011;10595;51.218;3.452;2023-04-12T11:07:06;5.33;;;1.47;;
20870;SDS011;10595;51.218;3.452;2023-04-12T11:14:35;3.30;;;1.10;;
20870;SDS011;10595;51.218;3.452;2023-04-12T11:19:39;2.03;;;0.80;;
20870;SDS011;10595;51.218;3.452;2023-04-12T11:22:07;4.63;;;1.00;;
20870;SDS011;10595;51.218;3.452;2023-04-12T11:24:40;2.50;;;0.73;;
20870;SDS011;10595;51.218;3.452;2023-04-12T11:27:07;3.10;;;0.77;;
20870;SDS011;10595;51.218;3.452;2023-04-12T11:29:33;5.53;;;0.90;;
20870;SDS011;10595;51.218;3.452;2023-04-12T11:32:03;3.07;;;0.77;;
20870;SDS011;10595;51.218;3.452;2023-04-12T11:34:32;6.73;;;0.70;;
20870;SDS011;10595;51.218;3.452;2023-04-12T11:36:58;4.27;;;0.70;;
20870;SDS011;10595;51.218;3.452;2023-04-12T11:39:25;3.87;;;0.50;;
20870;SDS011;10595;51.218;3.452;2023-04-12T11:41:52;2.17;;;0.70;;
20870;SDS011;10595;51.218;3.452;2023-04-12T11:44:18;1.90;;;0.50;;
20870;SDS011;10595;51.218;3.452;2023-04-12T11:46:47;2.23;;;0.63;;
20870;SDS011;10595;51.218;3.452;2023-04-12T11:49:13;3.03;;;0.73;;
20870;SDS011;10595;51.218;3.452;2023-04-12T11:51:40;2.93;;;0.93;;
20870;SDS011;10595;51.218;3.452;2023-04-12T11:54:06;6.53;;;1.10;;
20870;SDS011;10595;51.218;3.452;2023-04-12T11:56:32;5.53;;;1.00;;
20870;SDS011;10595;51.218;3.452;2023-04-12T11:58:58;3.07;;;0.67;;
20870;SDS011;10595;51.218;3.452;2023-04-12T12:01:25;4.50;;;1.07;;
20870;SDS011;10595;51.218;3.452;2023-04-12T12:03:52;4.97;;;0.80;;
20870;SDS011;10595;51.218;3.452;2023-04-12T12:06:19;3.37;;;1.00;;
20870;SDS011;10595;51.218;3.452;2023-04-12T12:08:45;3.37;;;0.60;;
20870;SDS011;10595;51.218;3.452;2023-04-12T12:11:11;2.57;;;0.70;;
20870;SDS011;10595;51.218;3.452;2023-04-12T12:16:09;2.93;;;0.90;;
20870;SDS011;10595;51.218;3.452;2023-04-12T12:18:40;2.83;;;0.60;;
20870;SDS011;10595;51.218;3.452;2023-04-12T12:21:09;3.60;;;0.60;;
20870;SDS011;10595;51.218;3.452;2023-04-12T12:23:35;3.17;;;0.70;;
20870;SDS011;10595;51.218;3.452;2023-04-12T12:26:02;3.40;;;1.03;;
20870;SDS011;10595;51.218;3.452;2023-04-12T12:28:29;5.23;;;1.10;;
20870;SDS011;10595;51.218;3.452;2023-04-12T12:30:55;7.23;;;1.67;;
20870;SDS011;10595;51.218;3.452;2023-04-12T12:33:34;4.77;;;0.93;;
20870;SDS011;10595;51.218;3.452;2023-04-12T12:36:02;7.00;;;1.33;;
20870;SDS011;10595;51.218;3.452;2023-04-12T12:38:34;3.40;;;0.80;;
20870;SDS011;10595;51.218;3.452;2023-04-12T12:41:14;4.93;;;1.10;;
20870;SDS011;10595;51.218;3.452;2023-04-12T12:43:47;3.37;;;1.17;;
20870;SDS011;10595;51.218;3.452;2023-04-12T12:46:13;5.17;;;0.87;;
20870;SDS011;10595;51.218;3.452;2023-04-12T12:48:41;5.60;;;1.30;;
20870;SDS011;10595;51.218;3.452;2023-04-12T12:51:07;5.50;;;1.03;;
20870;SDS011;10595;51.218;3.452;2023-04-12T12:53:40;3.40;;;0.83;;
20870;SDS011;10595;51.218;3.452;2023-04-12T12:56:07;4.30;;;0.73;;
20870;SDS011;10595;51.218;3.452;2023-04-12T12:58:34;4.10;;;0.87;;
20870;SDS011;10595;51.218;3.452;2023-04-12T13:01:00;6.50;;;0.90;;
20870;SDS011;10595;51.218;3.452;2023-04-12T13:03:26;6.47;;;1.20;;
20870;SDS011;10595;51.218;3.452;2023-04-12T13:05:52;3.77;;;0.80;;
20870;SDS011;10595;51.218;3.452;2023-04-12T13:08:19;1.63;;;0.77;;
20870;SDS011;10595;51.218;3.452;2023-04-12T13:10:45;3.80;;;0.77;;
20870;SDS011;10595;51.218;3.452;2023-04-12T13:13:11;3.83;;;1.10;;
20870;SDS011;10595;51.218;3.452;2023-04-12T13:15:37;2.67;;;0.70;;
20870;SDS011;10595;51.218;3.452;2023-04-12T13:18:03;6.10;;;0.83;;
20870;SDS011;10595;51.218;3.452;2023-04-12T13:20:30;1.80;;;0.67;;
20870;SDS011;10595;51.218;3.452;2023-04-12T13:22:56;3.27;;;0.60;;
20870;SDS011;10595;51.218;3.452;2023-04-12T13:25:22;5.93;;;1.10;;
20870;SDS011;10595;51.218;3.452;2023-04-12T13:27:48;5.53;;;0.80;;
20870;SDS011;10595;51.218;3.452;2023-04-12T13:30:14;5.07;;;0.73;;
20870;SDS011;10595;51.218;3.452;2023-04-12T13:32:41;6.10;;;0.83;;
20870;SDS011;10595;51.218;3.452;2023-04-12T13:35:08;7.50;;;0.90;;
20870;SDS011;10595;51.218;3.452;2023-04-12T13:37:35;3.63;;;1.03;;
20870;SDS011;10595;51.218;3.452;2023-04-12T13:40:01;7.27;;;1.43;;
20870;SDS011;10595;51.218;3.452;2023-04-12T13:42:27;4.77;;;1.00;;
20870;SDS011;10595;51.218;3.452;2023-04-12T13:44:53;5.93;;;0.93;;
20870;SDS011;10595;51.218;3.452;2023-04-12T13:47:19;7.60;;;1.67;;
20870;SDS011;10595;51.218;3.452;2023-04-12T13:49:46;4.10;;;1.13;;
20870;SDS011;10595;51.218;3.452;2023-04-12T13:52:12;8.77;;;1.30;;
20870;SDS011;10595;51.218;3.452;2023-04-12T13:54:38;3.50;;;1.10;;
20870;SDS011;10595;51.218;3.452;2023-04-12T13:57:05;11.27;;;1.90;;
20870;SDS011;10595;51.218;3.452;2023-04-12T13:59:31;10.30;;;1.77;;
20870;SDS011;10595;51.218;3.452;2023-04-12T14:01:58;6.03;;;1.23;;
20870;SDS011;10595;51.218;3.452;2023-04-12T14:04:26;8.20;;;1.50;;
20870;SDS011;10595;51.218;3.452;2023-04-12T14:06:52;8.17;;;1.80;;
20870;SDS011;10595;51.218;3.452;2023-04-12T14:09:25;4.60;;;1.03;;
20870;SDS011;10595;51.218;3.452;2023-04-12T14:11:51;5.87;;;1.00;;
20870;SDS011;10595;51.218;3.452;2023-04-12T14:14:21;5.40;;;1.10;;
20870;SDS011;10595;51.218;3.452;2023-04-12T14:16:48;13.57;;;2.10;;
20870;SDS011;10595;51.218;3.452;2023-04-12T14:19:16;7.53;;;2.63;;
20870;SDS011;10595;51.218;3.452;2023-04-12T14:21:42;7.03;;;1.27;;
20870;SDS011;10595;51.218;3.452;2023-04-12T14:24:08;7.57;;;1.30;;
20870;SDS011;10595;51.218;3.452;2023-04-12T14:26:34;8.63;;;1.40;;
20870;SDS011;10595;51.218;3.452;2023-04-12T14:29:00;6.80;;;1.90;;
20870;SDS011;10595;51.218;3.452;2023-04-12T14:31:26;6.13;;;1.30;;
20870;SDS011;10595;51.218;3.452;2023-04-12T14:33:52;8.63;;;1.40;;
20870;SDS011;10595;51.218;3.452;2023-04-12T14:36:18;6.30;;;1.60;;
20870;SDS011;10595;51.218;3.452;2023-04-12T14:38:45;7.13;;;1.73;;
20870;SDS011;10595;51.218;3.452;2023-04-12T14:41:10;9.63;;;1.67;;
20870;SDS011;10595;51.218;3.452;2023-04-12T14:43:37;9.20;;;1.90;;
20870;SDS011;10595;51.218;3.452;2023-04-12T14:46:04;7.37;;;1.50;;
20870;SDS011;10595;51.218;3.452;2023-04-12T14:48:30;7.57;;;1.77;;
20870;SDS011;10595;51.218;3.452;2023-04-12T14:50:56;5.37;;;1.57;;
20870;SDS011;10595;51.218;3.452;2023-04-12T14:53:22;7.00;;;1.17;;
20870;SDS011;10595;51.218;3.452;2023-04-12T14:55:48;7.63;;;1.80;;
20870;SDS011;10595;51.218;3.452;2023-04-12T14:58:15;8.67;;;1.50;;
20870;SDS011;10595;51.218;3.452;2023-04-12T15:00:41;7.73;;;1.50;;
20870;SDS011;10595;51.218;3.452;2023-04-12T15:03:07;7.07;;;1.30;;
20870;SDS011;10595;51.218;3.452;2023-04-12T15:05:34;6.60;;;1.40;;
20870;SDS011;10595;51.218;3.452;2023-04-12T15:08:00;7.17;;;1.00;;